createdAt,value
2018-03-17T00:00:19.145Z,988.35
2018-03-17T00:01:19.152Z,988.37
2018-03-17T00:02:19.113Z,988.37
2018-03-17T00:03:19.097Z,988.40
2018-03-17T00:04:19.084Z,988.44
2018-03-17T00:05:19.064Z,988.43
2018-03-17T00:06:19.058Z,988.40
2018-03-17T00:07:19.067Z,988.48
2018-03-17T00:08:19.018Z,988.43
2018-03-17T00:09:18.999Z,988.46
2018-03-17T00:10:18.992Z,988.50
2018-03-17T00:11:19.013Z,988.45
2018-03-17T00:12:18.951Z,988.45
2018-03-17T00:13:18.934Z,988.49
2018-03-17T00:14:18.930Z,988.46
2018-03-17T00:15:18.903Z,988.39
2018-03-17T00:16:18.886Z,988.37
2018-03-17T00:17:18.870Z,988.38
2018-03-17T00:18:18.854Z,988.36
2018-03-17T00:19:18.838Z,988.34
2018-03-17T00:20:18.824Z,988.29
2018-03-17T00:21:18.806Z,988.27
2018-03-17T00:22:18.799Z,988.29
2018-03-17T00:23:18.805Z,988.29
2018-03-17T00:24:18.757Z,988.26
2018-03-17T00:25:18.740Z,988.27
2018-03-17T00:26:18.729Z,988.26
2018-03-17T00:27:18.709Z,988.28
2018-03-17T00:28:18.691Z,988.30
2018-03-17T00:29:18.675Z,988.26
2018-03-17T00:30:18.673Z,988.25
2018-03-17T00:31:18.643Z,988.29
2018-03-17T00:32:18.642Z,988.23
2018-03-17T00:33:18.610Z,988.27
2018-03-17T00:34:18.595Z,988.26
2018-03-17T00:35:18.578Z,988.23
2018-03-17T00:36:18.561Z,988.27
2018-03-17T00:37:18.545Z,988.23
2018-03-17T00:38:18.529Z,988.22
2018-03-17T00:39:18.559Z,988.17
2018-03-17T00:40:18.496Z,988.17
2018-03-17T00:41:18.484Z,988.15
2018-03-17T00:42:18.463Z,988.11
2018-03-17T00:43:18.447Z,988.10
2018-03-17T00:44:18.430Z,988.05
2018-03-17T00:45:18.422Z,988.08
2018-03-17T00:46:18.398Z,988.06
2018-03-17T00:47:18.407Z,988.09
2018-03-17T00:48:18.365Z,988.12
2018-03-17T00:49:18.567Z,988.11
2018-03-17T00:50:18.332Z,988.10
2018-03-17T00:51:18.315Z,988.10
2018-03-17T00:52:18.354Z,988.04
2018-03-17T00:53:18.281Z,988.02
2018-03-17T00:54:18.278Z,988.03
2018-03-17T00:55:18.260Z,988.01
2018-03-17T00:56:18.245Z,988.04
2018-03-17T00:57:18.214Z,988.02
2018-03-17T00:58:18.241Z,988.07
2018-03-17T00:59:18.182Z,988.13
2018-03-17T01:00:18.164Z,988.06
2018-03-17T01:01:18.176Z,988.11
2018-03-17T01:02:18.131Z,988.09
2018-03-17T01:03:18.116Z,988.08
2018-03-17T01:04:18.097Z,988.07
2018-03-17T01:05:18.081Z,987.98
2018-03-17T01:06:18.065Z,988.05
2018-03-17T01:07:18.048Z,987.97
2018-03-17T01:08:18.031Z,988.04
2018-03-17T01:09:18.014Z,988.08
2018-03-17T01:10:17.998Z,988.03
2018-03-17T01:11:17.982Z,988.04
2018-03-17T01:12:17.991Z,988.02
2018-03-17T01:13:17.947Z,988.02
2018-03-17T01:14:17.984Z,987.98
2018-03-17T01:15:17.914Z,987.99
2018-03-17T01:16:17.897Z,987.97
2018-03-17T01:17:17.916Z,987.96
2018-03-17T01:18:17.863Z,987.94
2018-03-17T01:19:17.860Z,987.96
2018-03-17T01:20:17.838Z,987.94
2018-03-17T01:21:17.827Z,987.98
2018-03-17T01:22:17.795Z,987.99
2018-03-17T01:23:17.830Z,988.01
2018-03-17T01:24:17.761Z,988.00
2018-03-17T01:25:17.745Z,987.92
2018-03-17T01:26:17.756Z,987.98
2018-03-17T01:27:17.711Z,987.92
2018-03-17T01:28:17.694Z,987.93
2018-03-17T01:29:17.696Z,987.90
2018-03-17T01:30:17.660Z,987.88
2018-03-17T01:31:17.644Z,987.87
2018-03-17T01:32:17.626Z,987.87
2018-03-17T01:33:17.610Z,987.88
2018-03-17T01:34:17.593Z,987.82
2018-03-17T01:35:17.576Z,987.82
2018-03-17T01:36:17.564Z,987.80
2018-03-17T01:37:17.552Z,987.76
2018-03-17T01:38:17.558Z,987.78
2018-03-17T01:39:17.512Z,987.69
2018-03-17T01:40:17.491Z,987.70
2018-03-17T01:41:17.485Z,987.68
2018-03-17T01:42:17.458Z,987.68
2018-03-17T01:43:17.441Z,987.71
2018-03-17T01:44:17.424Z,987.70
2018-03-17T01:45:17.425Z,987.69
2018-03-17T01:46:17.389Z,987.67
2018-03-17T01:47:17.400Z,987.71
2018-03-17T01:48:17.355Z,987.67
2018-03-17T01:49:17.395Z,987.67
2018-03-17T01:50:17.325Z,987.72
2018-03-17T01:51:17.306Z,987.70
2018-03-17T01:52:17.287Z,987.72
2018-03-17T01:53:17.270Z,987.74
2018-03-17T01:54:17.254Z,987.72
2018-03-17T01:55:17.237Z,987.78
2018-03-17T01:56:17.219Z,987.72
2018-03-17T01:57:17.203Z,987.74
2018-03-17T01:58:17.188Z,987.73
2018-03-17T01:59:17.169Z,987.74
2018-03-17T02:00:17.152Z,987.73
2018-03-17T02:01:17.135Z,987.73
2018-03-17T02:02:17.146Z,987.71
2018-03-17T02:03:17.111Z,987.79
2018-03-17T02:04:17.130Z,987.81
2018-03-17T02:05:17.079Z,987.77
2018-03-17T02:06:17.051Z,987.76
2018-03-17T02:07:17.078Z,987.82
2018-03-17T02:08:17.017Z,987.81
2018-03-17T02:09:17.000Z,987.89
2018-03-17T02:10:17.005Z,987.85
2018-03-17T02:11:16.976Z,987.91
2018-03-17T02:12:16.955Z,987.87
2018-03-17T02:13:16.945Z,987.85
2018-03-17T02:14:16.915Z,987.81
2018-03-17T02:15:17.106Z,987.83
2018-03-17T02:16:16.882Z,987.78
2018-03-17T02:17:16.865Z,987.77
2018-03-17T02:18:16.886Z,987.78
2018-03-17T02:19:16.831Z,987.78
2018-03-17T02:20:16.814Z,987.73
2018-03-17T02:21:16.800Z,987.71
2018-03-17T02:22:16.840Z,987.71
2018-03-17T02:23:16.763Z,987.67
2018-03-17T02:24:16.751Z,987.69
2018-03-17T02:25:16.729Z,987.73
2018-03-17T02:26:16.713Z,987.70
2018-03-17T02:27:16.696Z,987.66
2018-03-17T02:28:16.694Z,987.62
2018-03-17T02:29:16.664Z,987.64
2018-03-17T02:30:16.676Z,987.59
2018-03-17T02:31:16.650Z,987.62
2018-03-17T02:32:16.628Z,987.62
2018-03-17T02:33:16.605Z,987.61
2018-03-17T02:34:16.576Z,987.64
2018-03-17T02:35:16.560Z,987.65
2018-03-17T02:36:16.561Z,987.69
2018-03-17T02:37:16.542Z,987.70
2018-03-17T02:38:16.510Z,987.72
2018-03-17T02:39:16.517Z,987.72
2018-03-17T02:40:16.476Z,987.74
2018-03-17T02:41:16.459Z,987.71
2018-03-17T02:42:16.449Z,987.70
2018-03-17T02:43:16.453Z,987.71
2018-03-17T02:44:16.417Z,987.70
2018-03-17T02:45:16.393Z,987.70
2018-03-17T02:46:16.377Z,987.67
2018-03-17T02:47:16.359Z,987.72
2018-03-17T02:48:16.415Z,987.72
2018-03-17T02:49:16.359Z,987.73
2018-03-17T02:50:16.317Z,987.71
2018-03-17T02:51:16.326Z,987.72
2018-03-17T02:52:16.381Z,987.70
2018-03-17T02:53:16.298Z,987.74
2018-03-17T02:54:16.376Z,987.69
2018-03-17T02:55:16.232Z,987.72
2018-03-17T02:56:16.391Z,987.66
2018-03-17T02:57:16.196Z,987.75
2018-03-17T02:58:16.227Z,987.72
2018-03-17T02:59:16.302Z,987.69
2018-03-17T03:00:16.233Z,987.65
2018-03-17T03:01:16.121Z,987.61
2018-03-17T03:02:16.120Z,987.59
2018-03-17T03:03:16.105Z,987.56
2018-03-17T03:04:16.067Z,987.57
2018-03-17T03:05:16.101Z,987.52
2018-03-17T03:06:16.032Z,987.50
2018-03-17T03:07:16.060Z,987.41
2018-03-17T03:08:16.031Z,987.48
2018-03-17T03:09:15.979Z,987.47
2018-03-17T03:10:15.963Z,987.42
2018-03-17T03:11:15.945Z,987.42
2018-03-17T03:12:15.927Z,987.44
2018-03-17T03:13:15.910Z,987.41
2018-03-17T03:14:15.893Z,987.43
2018-03-17T03:15:15.875Z,987.43
2018-03-17T03:16:15.857Z,987.45
2018-03-17T03:17:15.840Z,987.46
2018-03-17T03:18:15.823Z,987.42
2018-03-17T03:19:15.806Z,987.48
2018-03-17T03:20:15.793Z,987.42
2018-03-17T03:21:15.770Z,987.48
2018-03-17T03:22:15.780Z,987.44
2018-03-17T03:23:15.736Z,987.47
2018-03-17T03:24:15.934Z,987.46
2018-03-17T03:25:15.704Z,987.49
2018-03-17T03:26:15.683Z,987.44
2018-03-17T03:27:15.705Z,987.44
2018-03-17T03:28:15.649Z,987.43
2018-03-17T03:29:15.631Z,987.41
2018-03-17T03:30:15.647Z,987.37
2018-03-17T03:31:15.627Z,987.38
2018-03-17T03:32:15.579Z,987.34
2018-03-17T03:33:15.784Z,987.34
2018-03-17T03:34:15.547Z,987.42
2018-03-17T03:35:15.552Z,987.30
2018-03-17T03:36:15.549Z,987.35
2018-03-17T03:37:15.492Z,987.38
2018-03-17T03:38:15.474Z,987.37
2018-03-17T03:39:15.468Z,987.37
2018-03-17T03:40:15.439Z,987.38
2018-03-17T03:41:15.421Z,987.35
2018-03-17T03:42:15.404Z,987.35
2018-03-17T03:43:15.387Z,987.37
2018-03-17T03:44:15.369Z,987.32
2018-03-17T03:45:15.351Z,987.32
2018-03-17T03:46:15.336Z,987.31
2018-03-17T03:47:15.317Z,987.36
2018-03-17T03:48:15.299Z,987.35
2018-03-17T03:49:15.300Z,987.32
2018-03-17T03:50:15.269Z,987.33
2018-03-17T03:51:15.283Z,987.34
2018-03-17T03:52:15.234Z,987.29
2018-03-17T03:53:15.216Z,987.32
2018-03-17T03:54:15.214Z,987.33
2018-03-17T03:55:15.176Z,987.30
2018-03-17T03:56:15.158Z,987.27
2018-03-17T03:57:15.141Z,987.26
2018-03-17T03:58:15.145Z,987.26
2018-03-17T03:59:15.107Z,987.32
2018-03-17T04:00:15.123Z,987.27
2018-03-17T04:01:15.074Z,987.24
2018-03-17T04:02:15.054Z,987.23
2018-03-17T04:03:15.053Z,987.25
2018-03-17T04:04:15.017Z,987.22
2018-03-17T04:05:14.999Z,987.26
2018-03-17T04:06:14.982Z,987.21
2018-03-17T04:07:14.965Z,987.26
2018-03-17T04:08:14.946Z,987.21
2018-03-17T04:09:14.929Z,987.24
2018-03-17T04:10:14.911Z,987.24
2018-03-17T04:11:14.897Z,987.24
2018-03-17T04:12:14.878Z,987.25
2018-03-17T04:13:14.860Z,987.24
2018-03-17T04:14:14.840Z,987.28
2018-03-17T04:15:14.823Z,987.33
2018-03-17T04:16:14.804Z,987.31
2018-03-17T04:17:14.824Z,987.38
2018-03-17T04:18:14.780Z,987.37
2018-03-17T04:19:14.982Z,987.37
2018-03-17T04:20:14.757Z,987.36
2018-03-17T04:21:14.716Z,987.34
2018-03-17T04:22:14.919Z,987.34
2018-03-17T04:23:14.686Z,987.33
2018-03-17T04:24:14.663Z,987.31
2018-03-17T04:25:14.674Z,987.29
2018-03-17T04:26:14.628Z,987.30
2018-03-17T04:27:14.625Z,987.28
2018-03-17T04:28:14.596Z,987.27
2018-03-17T04:29:14.600Z,987.31
2018-03-17T04:30:14.563Z,987.27
2018-03-17T04:31:14.589Z,987.29
2018-03-17T04:32:14.522Z,987.26
2018-03-17T04:33:14.504Z,987.25
2018-03-17T04:34:14.515Z,987.24
2018-03-17T04:35:14.469Z,987.27
2018-03-17T04:36:14.452Z,987.23
2018-03-17T04:37:14.444Z,987.21
2018-03-17T04:38:14.417Z,987.22
2018-03-17T04:39:14.399Z,987.20
2018-03-17T04:40:14.381Z,987.20
2018-03-17T04:41:14.363Z,987.20
2018-03-17T04:42:14.346Z,987.18
2018-03-17T04:43:14.330Z,987.21
2018-03-17T04:44:14.310Z,987.19
2018-03-17T04:45:14.310Z,987.19
2018-03-17T04:46:14.292Z,987.22
2018-03-17T04:47:14.273Z,987.23
2018-03-17T04:48:14.244Z,987.26
2018-03-17T04:49:14.263Z,987.24
2018-03-17T04:50:14.211Z,987.25
2018-03-17T04:51:14.237Z,987.24
2018-03-17T04:52:14.174Z,987.18
2018-03-17T04:53:14.156Z,987.19
2018-03-17T04:54:14.134Z,987.17
2018-03-17T04:55:14.115Z,987.12
2018-03-17T04:56:14.122Z,987.15
2018-03-17T04:57:14.081Z,987.14
2018-03-17T04:58:14.099Z,987.11
2018-03-17T04:59:14.054Z,987.13
2018-03-17T05:00:14.026Z,987.11
2018-03-17T05:01:14.010Z,987.14
2018-03-17T05:02:13.995Z,987.21
2018-03-17T05:03:13.973Z,987.17
2018-03-17T05:04:13.956Z,987.17
2018-03-17T05:05:13.968Z,987.22
2018-03-17T05:06:13.920Z,987.20
2018-03-17T05:07:13.929Z,987.19
2018-03-17T05:08:13.885Z,987.22
2018-03-17T05:09:14.093Z,987.24
2018-03-17T05:10:13.849Z,987.21
2018-03-17T05:11:13.831Z,987.26
2018-03-17T05:12:13.827Z,987.29
2018-03-17T05:13:13.796Z,987.25
2018-03-17T05:14:13.778Z,987.27
2018-03-17T05:15:13.785Z,987.31
2018-03-17T05:16:13.765Z,987.28
2018-03-17T05:17:13.732Z,987.30
2018-03-17T05:18:13.729Z,987.28
2018-03-17T05:19:13.688Z,987.27
2018-03-17T05:20:13.670Z,987.22
2018-03-17T05:21:13.652Z,987.27
2018-03-17T05:22:13.635Z,987.25
2018-03-17T05:23:13.618Z,987.24
2018-03-17T05:24:13.602Z,987.21
2018-03-17T05:25:13.581Z,987.22
2018-03-17T05:26:13.564Z,987.24
2018-03-17T05:27:13.546Z,987.22
2018-03-17T05:28:13.528Z,987.25
2018-03-17T05:29:13.517Z,987.25
2018-03-17T05:30:13.494Z,987.25
2018-03-17T05:31:13.475Z,987.23
2018-03-17T05:32:13.456Z,987.22
2018-03-17T05:33:13.459Z,987.16
2018-03-17T05:34:13.658Z,987.18
2018-03-17T05:35:13.413Z,987.16
2018-03-17T05:36:13.385Z,987.16
2018-03-17T05:37:13.403Z,987.12
2018-03-17T05:38:13.380Z,987.13
2018-03-17T05:39:13.340Z,987.12
2018-03-17T05:40:13.331Z,987.11
2018-03-17T05:41:13.320Z,987.10
2018-03-17T05:42:13.282Z,987.13
2018-03-17T05:43:13.319Z,987.09
2018-03-17T05:44:13.248Z,987.10
2018-03-17T05:45:13.224Z,987.09
2018-03-17T05:46:13.419Z,987.10
2018-03-17T05:47:13.188Z,987.03
2018-03-17T05:48:13.169Z,987.08
2018-03-17T05:49:13.181Z,987.04
2018-03-17T05:50:13.134Z,987.07
2018-03-17T05:51:13.120Z,987.03
2018-03-17T05:52:13.138Z,987.02
2018-03-17T05:53:13.081Z,987.03
2018-03-17T05:54:13.064Z,987.00
2018-03-17T05:55:13.045Z,987.02
2018-03-17T05:56:13.027Z,986.97
2018-03-17T05:57:13.013Z,986.95
2018-03-17T05:58:12.992Z,986.98
2018-03-17T05:59:12.971Z,986.95
2018-03-17T06:00:12.963Z,986.95
2018-03-17T06:01:12.935Z,986.96
2018-03-17T06:02:13.123Z,986.97
2018-03-17T06:03:12.899Z,986.96
2018-03-17T06:04:12.890Z,986.94
2018-03-17T06:05:12.909Z,986.95
2018-03-17T06:06:12.845Z,986.89
2018-03-17T06:07:12.828Z,986.96
2018-03-17T06:08:12.808Z,986.98
2018-03-17T06:09:12.871Z,986.97
2018-03-17T06:10:12.774Z,986.98
2018-03-17T06:11:12.757Z,986.96
2018-03-17T06:12:12.736Z,986.96
2018-03-17T06:13:12.719Z,986.95
2018-03-17T06:14:12.706Z,986.97
2018-03-17T06:15:12.687Z,986.94
2018-03-17T06:16:12.664Z,986.92
2018-03-17T06:17:12.646Z,986.94
2018-03-17T06:18:12.628Z,986.93
2018-03-17T06:19:12.611Z,986.99
2018-03-17T06:20:12.595Z,986.92
2018-03-17T06:21:12.574Z,986.96
2018-03-17T06:22:12.557Z,986.93
2018-03-17T06:23:12.764Z,986.97
2018-03-17T06:24:12.519Z,986.98
2018-03-17T06:25:12.502Z,986.96
2018-03-17T06:26:12.547Z,987.02
2018-03-17T06:27:12.465Z,986.97
2018-03-17T06:28:12.447Z,986.99
2018-03-17T06:29:12.632Z,987.01
2018-03-17T06:30:12.413Z,986.99
2018-03-17T06:31:12.400Z,987.04
2018-03-17T06:32:12.423Z,986.99
2018-03-17T06:33:12.357Z,987.01
2018-03-17T06:34:12.339Z,987.03
2018-03-17T06:35:12.401Z,987.06
2018-03-17T06:36:12.301Z,987.03
2018-03-17T06:37:12.284Z,987.08
2018-03-17T06:38:12.284Z,987.02
2018-03-17T06:39:12.248Z,987.00
2018-03-17T06:40:12.237Z,987.04
2018-03-17T06:41:12.211Z,987.00
2018-03-17T06:42:12.193Z,987.00
2018-03-17T06:43:12.176Z,986.99
2018-03-17T06:44:12.157Z,987.03
2018-03-17T06:45:12.139Z,986.99
2018-03-17T06:46:12.121Z,987.02
2018-03-17T06:47:12.103Z,986.99
2018-03-17T06:48:12.085Z,986.99
2018-03-17T06:49:12.118Z,986.99
2018-03-17T06:50:12.048Z,986.95
2018-03-17T06:51:12.031Z,987.01
2018-03-17T06:52:12.074Z,986.97
2018-03-17T06:53:11.993Z,987.02
2018-03-17T06:54:11.980Z,986.94
2018-03-17T06:55:12.185Z,986.99
2018-03-17T06:56:11.941Z,986.98
2018-03-17T06:57:11.921Z,986.92
2018-03-17T06:58:11.956Z,986.98
2018-03-17T06:59:11.886Z,986.99
2018-03-17T07:00:11.869Z,986.97
2018-03-17T07:01:11.895Z,986.99
2018-03-17T07:02:11.832Z,986.97
2018-03-17T07:03:11.814Z,986.96
2018-03-17T07:04:11.824Z,986.95
2018-03-17T07:05:11.778Z,986.94
2018-03-17T07:06:11.761Z,986.94
2018-03-17T07:07:11.786Z,986.96
2018-03-17T07:08:11.724Z,986.91
2018-03-17T07:09:11.701Z,986.92
2018-03-17T07:10:11.724Z,986.95
2018-03-17T07:11:11.668Z,986.96
2018-03-17T07:12:11.647Z,986.94
2018-03-17T07:13:11.660Z,986.99
2018-03-17T07:14:11.617Z,987.00
2018-03-17T07:15:11.597Z,987.00
2018-03-17T07:16:11.591Z,987.04
2018-03-17T07:17:11.556Z,987.03
2018-03-17T07:18:11.536Z,986.99
2018-03-17T07:19:11.544Z,986.98
2018-03-17T07:20:11.499Z,987.01
2018-03-17T07:21:11.481Z,986.99
2018-03-17T07:22:11.463Z,987.00
2018-03-17T07:23:11.446Z,987.00
2018-03-17T07:24:11.426Z,987.01
2018-03-17T07:25:11.418Z,986.98
2018-03-17T07:26:11.389Z,987.04
2018-03-17T07:27:11.468Z,987.02
2018-03-17T07:28:11.355Z,987.04
2018-03-17T07:29:11.339Z,987.05
2018-03-17T07:30:11.372Z,987.10
2018-03-17T07:31:11.299Z,987.07
2018-03-17T07:32:11.280Z,987.09
2018-03-17T07:33:11.351Z,987.15
2018-03-17T07:34:11.245Z,987.13
2018-03-17T07:35:11.226Z,987.15
2018-03-17T07:37:11.191Z,987.18
2018-03-17T07:38:11.172Z,987.11
2018-03-17T07:39:11.203Z,987.12
2018-03-17T07:40:11.133Z,987.17
2018-03-17T07:41:11.116Z,987.20
2018-03-17T07:42:11.135Z,987.15
2018-03-17T07:43:11.079Z,987.09
2018-03-17T07:44:11.060Z,987.09
2018-03-17T07:45:11.071Z,987.06
2018-03-17T07:46:11.023Z,987.09
2018-03-17T07:47:11.007Z,987.02
2018-03-17T07:48:10.997Z,987.01
2018-03-17T07:49:10.969Z,987.03
2018-03-17T07:50:10.954Z,987.03
2018-03-17T07:51:10.942Z,987.06
2018-03-17T07:52:10.920Z,987.08
2018-03-17T07:53:10.896Z,987.04
2018-03-17T07:54:10.879Z,987.04
2018-03-17T07:55:10.860Z,987.07
2018-03-17T07:56:10.844Z,987.03
2018-03-17T07:57:10.832Z,987.03
2018-03-17T07:58:10.806Z,987.07
2018-03-17T07:59:10.991Z,987.09
2018-03-17T08:00:10.768Z,987.13
2018-03-17T08:01:10.751Z,987.13
2018-03-17T08:02:10.936Z,987.17
2018-03-17T08:03:10.715Z,987.19
2018-03-17T08:04:10.702Z,987.24
2018-03-17T08:05:10.754Z,987.14
2018-03-17T08:06:10.660Z,987.19
2018-03-17T08:07:10.642Z,987.15
2018-03-17T08:08:10.665Z,987.15
2018-03-17T08:09:10.605Z,987.17
2018-03-17T08:10:10.586Z,987.10
2018-03-17T08:11:10.574Z,987.16
2018-03-17T08:12:10.556Z,987.18
2018-03-17T08:13:10.738Z,987.03
2018-03-17T08:14:10.514Z,987.10
2018-03-17T08:15:10.496Z,987.08
2018-03-17T08:16:10.517Z,987.07
2018-03-17T08:17:10.463Z,987.09
2018-03-17T08:18:10.446Z,987.11
2018-03-17T08:19:10.422Z,987.10
2018-03-17T08:20:10.408Z,987.13
2018-03-17T08:21:10.386Z,987.14
2018-03-17T08:22:10.367Z,987.15
2018-03-17T08:23:10.349Z,987.13
2018-03-17T08:24:10.329Z,987.15
2018-03-17T08:25:10.312Z,987.18
2018-03-17T08:26:10.295Z,987.18
2018-03-17T08:27:10.279Z,987.21
2018-03-17T08:28:10.257Z,987.16
2018-03-17T08:29:10.239Z,987.16
2018-03-17T08:30:10.221Z,987.14
2018-03-17T08:31:10.208Z,987.12
2018-03-17T08:32:10.184Z,987.18
2018-03-17T08:33:10.166Z,987.17
2018-03-17T08:34:10.152Z,987.19
2018-03-17T08:35:10.134Z,987.17
2018-03-17T08:36:10.168Z,987.15
2018-03-17T08:37:10.093Z,987.14
2018-03-17T08:38:10.075Z,987.16
2018-03-17T08:39:10.125Z,987.12
2018-03-17T08:40:10.038Z,987.02
2018-03-17T08:41:10.020Z,987.06
2018-03-17T08:42:10.053Z,987.12
2018-03-17T08:43:09.984Z,987.08
2018-03-17T08:44:09.967Z,987.07
2018-03-17T08:45:10.150Z,987.13
2018-03-17T08:46:09.932Z,987.14
2018-03-17T08:47:09.910Z,987.16
2018-03-17T08:48:09.923Z,987.14
2018-03-17T08:49:09.874Z,987.12
2018-03-17T08:50:09.861Z,987.13
2018-03-17T08:51:09.847Z,987.10
2018-03-17T08:52:09.819Z,987.10
2018-03-17T08:53:09.801Z,987.09
2018-03-17T08:54:09.787Z,987.10
2018-03-17T08:55:09.768Z,987.11
2018-03-17T08:56:09.756Z,987.11
2018-03-17T08:57:09.735Z,987.05
2018-03-17T08:58:09.710Z,987.09
2018-03-17T08:59:09.693Z,987.05
2018-03-17T09:00:09.673Z,987.04
2018-03-17T09:01:09.655Z,987.02
2018-03-17T09:02:09.637Z,987.04
2018-03-17T09:03:09.619Z,987.02
2018-03-17T09:04:09.600Z,987.00
2018-03-17T09:05:09.582Z,986.97
2018-03-17T09:06:09.576Z,987.03
2018-03-17T09:07:09.549Z,986.96
2018-03-17T09:08:09.733Z,986.99
2018-03-17T09:09:09.510Z,987.02
2018-03-17T09:10:09.491Z,987.01
2018-03-17T09:11:09.473Z,986.97
2018-03-17T09:12:09.492Z,987.03
2018-03-17T09:13:09.437Z,987.06
2018-03-17T09:14:09.418Z,986.95
2018-03-17T09:15:09.415Z,986.98
2018-03-17T09:16:09.382Z,986.98
2018-03-17T09:17:09.364Z,987.00
2018-03-17T09:18:09.346Z,987.04
2018-03-17T09:19:09.329Z,987.03
2018-03-17T09:20:09.309Z,986.99
2018-03-17T09:21:09.350Z,987.01
2018-03-17T09:22:09.274Z,987.04
2018-03-17T09:23:09.256Z,987.04
2018-03-17T09:24:09.248Z,987.00
2018-03-17T09:25:09.219Z,986.99
2018-03-17T09:26:09.405Z,987.01
2018-03-17T09:27:09.188Z,987.00
2018-03-17T09:28:09.172Z,986.95
2018-03-17T09:29:09.216Z,987.00
2018-03-17T09:30:09.133Z,987.00
2018-03-17T09:31:09.115Z,987.01
2018-03-17T09:32:09.168Z,986.97
2018-03-17T09:33:09.075Z,987.03
2018-03-17T09:34:09.057Z,987.00
2018-03-17T09:35:09.110Z,986.99
2018-03-17T09:36:09.027Z,987.00
2018-03-17T09:37:09.006Z,987.02
2018-03-17T09:38:09.053Z,987.03
2018-03-17T09:39:08.973Z,987.04
2018-03-17T09:40:08.949Z,987.01
2018-03-17T09:41:08.979Z,987.02
2018-03-17T09:42:08.914Z,987.05
2018-03-17T09:43:08.896Z,987.01
2018-03-17T09:44:08.925Z,987.03
2018-03-17T09:45:08.860Z,987.03
2018-03-17T09:46:08.843Z,986.98
2018-03-17T09:47:08.846Z,986.98
2018-03-17T09:48:08.808Z,986.97
2018-03-17T09:49:08.791Z,986.99
2018-03-17T09:50:08.777Z,986.98
2018-03-17T09:51:08.753Z,986.97
2018-03-17T09:52:08.737Z,986.96
2018-03-17T09:53:08.720Z,986.95
2018-03-17T09:54:08.703Z,987.00
2018-03-17T09:55:08.733Z,986.92
2018-03-17T09:56:08.662Z,986.96
2018-03-17T09:57:08.647Z,986.95
2018-03-17T09:58:08.639Z,986.97
2018-03-17T09:59:08.616Z,986.91
2018-03-17T10:00:08.593Z,986.99
2018-03-17T10:01:08.573Z,986.92
2018-03-17T10:02:08.555Z,986.95
2018-03-17T10:03:08.537Z,986.95
2018-03-17T10:04:08.604Z,986.95
2018-03-17T10:05:08.501Z,986.93
2018-03-17T10:06:08.484Z,986.95
2018-03-17T10:07:08.669Z,986.88
2018-03-17T10:08:08.448Z,986.95
2018-03-17T10:09:08.430Z,986.92
2018-03-17T10:11:08.396Z,986.95
2018-03-17T10:12:08.452Z,986.94
2018-03-17T10:13:08.359Z,986.98
2018-03-17T10:14:08.359Z,986.99
2018-03-17T10:15:08.528Z,986.99
2018-03-17T10:16:08.314Z,987.01
2018-03-17T10:17:08.290Z,987.00
2018-03-17T10:18:08.355Z,986.97
2018-03-17T10:19:08.258Z,986.95
2018-03-17T10:20:08.236Z,987.00
2018-03-17T10:21:08.424Z,986.94
2018-03-17T10:22:08.201Z,986.95
2018-03-17T10:23:08.183Z,986.92
2018-03-17T10:24:08.203Z,986.98
2018-03-17T10:25:08.151Z,986.95
2018-03-17T10:26:08.131Z,986.96
2018-03-17T10:27:08.136Z,986.94
2018-03-17T10:28:08.096Z,986.93
2018-03-17T10:29:08.076Z,986.94
2018-03-17T10:30:08.059Z,986.94
2018-03-17T10:31:08.041Z,986.97
2018-03-17T10:32:08.022Z,986.97
2018-03-17T10:33:08.006Z,986.95
2018-03-17T10:34:08.022Z,986.99
2018-03-17T10:35:07.972Z,986.97
2018-03-17T10:36:07.958Z,987.01
2018-03-17T10:37:07.933Z,987.03
2018-03-17T10:38:07.916Z,986.99
2018-03-17T10:39:07.905Z,987.06
2018-03-17T10:40:07.881Z,986.99
2018-03-17T10:41:07.897Z,987.01
2018-03-17T10:42:07.844Z,987.02
2018-03-17T10:43:07.830Z,987.03
2018-03-17T10:44:07.909Z,987.02
2018-03-17T10:45:07.798Z,986.97
2018-03-17T10:46:07.774Z,986.93
2018-03-17T10:47:07.838Z,986.92
2018-03-17T10:48:07.738Z,986.90
2018-03-17T10:49:07.722Z,986.91
2018-03-17T10:50:07.905Z,986.89
2018-03-17T10:51:07.692Z,986.94
2018-03-17T10:52:07.666Z,986.95
2018-03-17T10:53:07.678Z,986.89
2018-03-17T10:54:07.630Z,986.95
2018-03-17T10:55:07.613Z,986.94
2018-03-17T10:56:07.629Z,986.98
2018-03-17T10:57:07.590Z,986.98
2018-03-17T10:58:07.559Z,986.96
2018-03-17T10:59:07.545Z,986.98
2018-03-17T11:00:07.528Z,986.94
2018-03-17T11:01:07.508Z,986.93
2018-03-17T11:02:07.488Z,986.90
2018-03-17T11:03:07.473Z,986.90
2018-03-17T11:04:07.451Z,986.87
2018-03-17T11:05:07.437Z,986.84
2018-03-17T11:06:07.538Z,986.83
2018-03-17T11:07:07.407Z,986.88
2018-03-17T11:08:07.378Z,986.90
2018-03-17T11:09:07.362Z,986.94
2018-03-17T11:10:07.344Z,986.96
2018-03-17T11:11:07.326Z,986.91
2018-03-17T11:12:07.311Z,986.90
2018-03-17T11:13:07.292Z,986.90
2018-03-17T11:14:07.272Z,986.96
2018-03-17T11:15:07.316Z,986.90
2018-03-17T11:16:07.238Z,986.88
2018-03-17T11:17:07.222Z,986.86
2018-03-17T11:18:07.215Z,986.87
2018-03-17T11:19:07.187Z,986.84
2018-03-17T11:20:07.167Z,986.81
2018-03-17T11:21:07.148Z,986.84
2018-03-17T11:22:07.130Z,986.85
2018-03-17T11:23:07.357Z,986.86
2018-03-17T11:24:07.094Z,986.83
2018-03-17T11:25:07.082Z,986.88
2018-03-17T11:26:07.267Z,986.89
2018-03-17T11:27:07.042Z,986.91
2018-03-17T11:28:07.024Z,986.86
2018-03-17T11:29:07.050Z,986.82
2018-03-17T11:30:06.989Z,986.89
2018-03-17T11:31:06.973Z,986.85
2018-03-17T11:32:07.009Z,986.87
2018-03-17T11:33:06.937Z,986.81
2018-03-17T11:34:06.920Z,986.87
2018-03-17T11:35:06.950Z,986.83
2018-03-17T11:36:06.885Z,986.89
2018-03-17T11:37:06.868Z,986.89
2018-03-17T11:38:06.868Z,986.92
2018-03-17T11:39:06.834Z,986.95
2018-03-17T11:40:06.819Z,986.91
2018-03-17T11:41:06.799Z,987.00
2018-03-17T11:42:06.785Z,987.00
2018-03-17T11:43:06.767Z,986.98
2018-03-17T11:44:06.751Z,986.92
2018-03-17T11:45:06.732Z,986.97
2018-03-17T11:46:06.713Z,986.96
2018-03-17T11:47:06.697Z,986.95
2018-03-17T11:48:06.678Z,986.93
2018-03-17T11:49:06.662Z,986.93
2018-03-17T11:50:06.646Z,986.92
2018-03-17T11:51:06.629Z,986.93
2018-03-17T11:52:06.813Z,986.97
2018-03-17T11:53:06.593Z,986.87
2018-03-17T11:54:06.576Z,986.97
2018-03-17T11:55:06.628Z,986.92
2018-03-17T11:56:06.541Z,986.92
2018-03-17T11:57:06.528Z,986.89
2018-03-17T11:58:06.555Z,986.89
2018-03-17T11:59:06.489Z,986.88
2018-03-17T12:00:06.471Z,986.89
2018-03-17T12:01:06.488Z,986.85
2018-03-17T12:02:06.438Z,986.88
2018-03-17T12:03:06.421Z,986.94
2018-03-17T12:04:06.429Z,986.85
2018-03-17T12:05:06.388Z,986.88
2018-03-17T12:06:06.370Z,986.91
2018-03-17T12:07:06.357Z,986.85
2018-03-17T12:08:06.335Z,986.85
2018-03-17T12:09:06.318Z,986.81
2018-03-17T12:10:06.309Z,986.85
2018-03-17T12:11:06.285Z,986.82
2018-03-17T12:12:06.265Z,986.77
2018-03-17T12:13:06.251Z,986.81
2018-03-17T12:14:06.278Z,986.77
2018-03-17T12:15:06.213Z,986.80
2018-03-17T12:16:06.196Z,986.79
2018-03-17T12:17:06.209Z,986.75
2018-03-17T12:18:06.161Z,986.79
2018-03-17T12:19:06.144Z,986.76
2018-03-17T12:20:06.147Z,986.73
2018-03-17T12:21:06.111Z,986.74
2018-03-17T12:22:06.092Z,986.65
2018-03-17T12:23:06.077Z,986.70
2018-03-17T12:24:06.060Z,986.67
2018-03-17T12:25:06.040Z,986.70
2018-03-17T12:26:06.026Z,986.74
2018-03-17T12:27:06.008Z,986.63
2018-03-17T12:28:05.989Z,986.70
2018-03-17T12:29:05.972Z,986.68
2018-03-17T12:30:05.955Z,986.70